createdAt,value
2023-03-27T00:00:08.765Z,101451.31
2023-03-27T00:02:37.867Z,101449.38
2023-03-27T00:05:06.437Z,101460.59
2023-03-27T00:07:35.993Z,101458.28
2023-03-27T00:10:04.021Z,101469.50
2023-03-27T00:12:31.759Z,101471.44
2023-03-27T00:15:00.902Z,101477.66
2023-03-27T00:17:28.785Z,101481.50
2023-03-27T00:19:56.537Z,101467.66
2023-03-27T00:22:24.351Z,101481.16
2023-03-27T00:24:53.600Z,101478.84
2023-03-27T00:27:21.383Z,101479.22
2023-03-27T00:29:49.134Z,101491.19
2023-03-27T00:32:16.960Z,101491.97
2023-03-27T00:34:44.748Z,101490.03
2023-03-27T00:37:12.927Z,101505.06
2023-03-27T00:39:40.751Z,101507.78
2023-03-27T00:42:14.400Z,101497.72
2023-03-27T00:44:42.485Z,101501.97
2023-03-27T00:47:12.788Z,101506.63
2023-03-27T00:49:40.726Z,101504.28
2023-03-27T00:52:08.824Z,101506.59
2023-03-27T00:54:40.172Z,101507.75
2023-03-27T00:57:14.182Z,101512.00
2023-03-27T00:59:44.887Z,101520.91
2023-03-27T01:02:14.588Z,101515.50
2023-03-27T01:04:44.123Z,101522.06
2023-03-27T01:07:12.919Z,101525.16
2023-03-27T01:09:41.078Z,101535.22
2023-03-27T01:12:23.678Z,101530.63
2023-03-27T01:15:06.640Z,101538.72
2023-03-27T01:17:47.214Z,101544.56
2023-03-27T01:20:42.347Z,101553.09
2023-03-27T01:23:35.928Z,101555.41
2023-03-27T01:26:37.178Z,101558.09
2023-03-27T01:29:12.467Z,101566.22
2023-03-27T01:32:07.364Z,101560.81
2023-03-27T01:35:03.287Z,101567.72
2023-03-27T01:38:01.444Z,101566.59
2023-03-27T01:40:35.129Z,101566.59
2023-03-27T01:43:08.167Z,101574.69
2023-03-27T01:45:43.711Z,101577.00
2023-03-27T01:48:16.887Z,101570.06
2023-03-27T01:50:49.363Z,101574.69
2023-03-27T01:53:22.054Z,101577.03
2023-03-27T01:55:58.175Z,101582.41
2023-03-27T01:58:33.166Z,101578.97
2023-03-27T02:01:02.888Z,101590.91
2023-03-27T02:03:35.796Z,101582.03
2023-03-27T02:06:09.607Z,101591.28
2023-03-27T02:08:43.607Z,101592.84
2023-03-27T02:11:19.495Z,101605.19
2023-03-27T02:13:51.673Z,101608.66
2023-03-27T02:16:23.808Z,101611.00
2023-03-27T02:18:56.777Z,101612.13
2023-03-27T02:21:24.922Z,101614.88
2023-03-27T02:23:53.544Z,101612.97
2023-03-27T02:26:23.237Z,101620.69
2023-03-27T02:29:03.308Z,101619.91
2023-03-27T02:31:42.435Z,101617.63
2023-03-27T02:34:38.267Z,101619.19
2023-03-27T02:37:19.193Z,101621.88
2023-03-27T02:40:31.973Z,101626.94
2023-03-27T02:43:35.336Z,101635.03
2023-03-27T02:46:10.670Z,101618.84
2023-03-27T02:48:43.146Z,101627.31
2023-03-27T02:51:16.223Z,101632.34
2023-03-27T02:53:48.772Z,101639.69
2023-03-27T02:56:18.604Z,101636.59
2023-03-27T02:58:51.885Z,101638.91
2023-03-27T03:01:33.462Z,101648.94
2023-03-27T03:04:16.608Z,101647.78
2023-03-27T03:07:04.256Z,101656.25
2023-03-27T03:09:32.669Z,101657.00
2023-03-27T03:12:01.385Z,101660.50
2023-03-27T03:14:44.011Z,101659.34
2023-03-27T03:17:12.627Z,101662.44
2023-03-27T03:19:40.794Z,101667.03
2023-03-27T03:22:09.496Z,101678.25
2023-03-27T03:24:41.823Z,101673.59
2023-03-27T03:27:12.745Z,101688.25
2023-03-27T03:29:56.742Z,101680.53
2023-03-27T03:32:28.212Z,101690.16
2023-03-27T03:34:57.066Z,101689.75
2023-03-27T03:37:28.433Z,101700.56
2023-03-27T03:39:57.289Z,101709.78
2023-03-27T03:42:25.772Z,101712.13
2023-03-27T03:44:55.728Z,101713.28
2023-03-27T03:47:24.187Z,101724.06
2023-03-27T03:49:51.942Z,101727.88
2023-03-27T03:52:19.781Z,101724.81
2023-03-27T03:54:47.634Z,101720.56
2023-03-27T03:57:15.607Z,101735.19
2023-03-27T03:59:48.812Z,101735.16
2023-03-27T04:02:31.757Z,101737.44
2023-03-27T04:05:10.350Z,101743.19
2023-03-27T04:07:40.897Z,101737.00
2023-03-27T04:10:35.467Z,101738.94
2023-03-27T04:13:06.677Z,101744.69
2023-03-27T04:15:38.515Z,101753.13
2023-03-27T04:18:35.037Z,101751.97
2023-03-27T04:21:14.182Z,101759.66
2023-03-27T04:23:42.586Z,101761.97
2023-03-27T04:26:12.291Z,101758.53
2023-03-27T04:29:00.564Z,101759.69
2023-03-27T04:32:05.616Z,101765.09
2023-03-27T04:34:43.502Z,101768.94
2023-03-27T04:37:30.491Z,101777.41
2023-03-27T04:40:17.912Z,101785.06
2023-03-27T04:42:46.092Z,101793.91
2023-03-27T04:45:15.178Z,101801.22
2023-03-27T04:47:47.475Z,101806.59
2023-03-27T04:50:17.699Z,101808.88
2023-03-27T04:52:47.916Z,101806.53
2023-03-27T04:55:18.317Z,101797.66
2023-03-27T04:57:48.936Z,101798.03
2023-03-27T05:00:19.459Z,101803.41
2023-03-27T05:02:48.666Z,101808.03
2023-03-27T05:05:24.907Z,101801.88
2023-03-27T05:07:53.234Z,101808.81
2023-03-27T05:10:24.362Z,101811.50
2023-03-27T05:12:56.431Z,101814.19
2023-03-27T05:15:25.801Z,101818.00
2023-03-27T05:17:55.225Z,101814.94
2023-03-27T05:20:28.082Z,101820.34
2023-03-27T05:22:57.134Z,101820.69
2023-03-27T05:25:27.189Z,101824.56
2023-03-27T05:27:55.988Z,101824.91
2023-03-27T05:30:27.358Z,101833.00
2023-03-27T05:33:16.422Z,101833.75
2023-03-27T05:35:47.179Z,101840.25
2023-03-27T05:38:15.964Z,101841.03
2023-03-27T05:41:09.895Z,101840.63
2023-03-27T05:43:42.165Z,101851.78
2023-03-27T05:46:10.165Z,101842.13
2023-03-27T05:48:39.306Z,101847.91
2023-03-27T05:51:10.299Z,101841.72
2023-03-27T05:53:39.289Z,101847.94
2023-03-27T05:56:27.712Z,101847.97
2023-03-27T05:58:59.120Z,101850.72
2023-03-27T06:01:28.174Z,101850.72
2023-03-27T06:03:58.611Z,101856.97
2023-03-27T06:06:32.997Z,101859.84
2023-03-27T06:09:00.880Z,101856.50
2023-03-27T06:11:29.771Z,101846.97
2023-03-27T06:13:58.948Z,101849.75
2023-03-27T06:16:41.070Z,101866.72
2023-03-27T06:19:38.900Z,101866.72
2023-03-27T06:22:09.047Z,101865.56
2023-03-27T06:24:38.515Z,101871.69
2023-03-27T06:27:06.508Z,101877.50
2023-03-27T06:29:37.307Z,101875.94
2023-03-27T06:32:05.346Z,101884.22
2023-03-27T06:34:38.677Z,101892.34
2023-03-27T06:37:37.217Z,101894.50
2023-03-27T06:40:09.676Z,101902.59
2023-03-27T06:42:39.671Z,101895.91
2023-03-27T06:45:26.298Z,101901.25
2023-03-27T06:48:21.475Z,101900.47
2023-03-27T06:50:54.031Z,101904.19
2023-03-27T06:53:27.961Z,101904.22
2023-03-27T06:55:57.364Z,101912.81
2023-03-27T06:58:27.426Z,101912.84
2023-03-27T07:00:56.014Z,101919.69
2023-03-27T07:03:23.991Z,101914.88
2023-03-27T07:06:10.968Z,101924.25
2023-03-27T07:08:49.298Z,101917.94
2023-03-27T07:11:18.322Z,101926.84
2023-03-27T07:13:57.353Z,101931.28
2023-03-27T07:16:28.018Z,101935.78
2023-03-27T07:18:58.869Z,101938.06
2023-03-27T07:21:28.474Z,101952.31
2023-03-27T07:24:01.021Z,101945.69
2023-03-27T07:26:34.417Z,101940.34
2023-03-27T07:29:14.554Z,101953.16
2023-03-27T07:31:57.714Z,101956.81
2023-03-27T07:34:37.443Z,101960.81
2023-03-27T07:37:17.003Z,101965.94
2023-03-27T07:40:08.021Z,101962.44
2023-03-27T07:42:36.793Z,101970.09
2023-03-27T07:45:09.586Z,101971.56
2023-03-27T07:47:37.547Z,101970.56
2023-03-27T07:50:11.495Z,101973.06
2023-03-27T07:52:40.869Z,101983.28
2023-03-27T07:55:12.389Z,101980.63
2023-03-27T07:57:59.851Z,101982.91
2023-03-27T08:00:30.196Z,101979.31
2023-03-27T08:03:11.483Z,101985.00
2023-03-27T08:05:44.286Z,101993.28
2023-03-27T08:08:14.892Z,101994.22
2023-03-27T08:10:52.013Z,102000.50
2023-03-27T08:13:19.913Z,101992.34
2023-03-27T08:15:47.906Z,101997.50
2023-03-27T08:18:24.956Z,102002.25
2023-03-27T08:20:57.105Z,102014.44
2023-03-27T08:23:27.146Z,102018.69
2023-03-27T08:26:26.423Z,102016.13
2023-03-27T08:28:58.203Z,102018.41
2023-03-27T08:31:30.842Z,102019.06
2023-03-27T08:34:04.395Z,102032.25
2023-03-27T08:36:46.825Z,102026.22
2023-03-27T08:39:15.837Z,102042.34
2023-03-27T08:42:01.261Z,102051.34
2023-03-27T08:44:35.070Z,102047.19
2023-03-27T08:47:15.992Z,102048.84
2023-03-27T08:49:54.393Z,102047.28
2023-03-27T08:52:43.222Z,102056.69
2023-03-27T08:55:24.604Z,102049.13
2023-03-27T08:58:02.775Z,102063.28
2023-03-27T09:00:39.500Z,102059.91
2023-03-27T09:03:25.734Z,102060.44
2023-03-27T09:05:57.418Z,102075.31
2023-03-27T09:08:40.633Z,102085.44
2023-03-27T09:11:16.785Z,102088.91
2023-03-27T09:13:55.146Z,102082.34
2023-03-27T09:16:29.310Z,102082.19
2023-03-27T09:19:04.947Z,102084.78
2023-03-27T09:21:41.106Z,102090.28
2023-03-27T09:24:20.827Z,102095.84
2023-03-27T09:27:25.510Z,102121.63
2023-03-27T09:30:24.409Z,102135.47
2023-03-27T09:33:03.464Z,102149.94
2023-03-27T09:35:32.107Z,102164.09
2023-03-27T09:38:03.797Z,102167.22
2023-03-27T09:40:41.123Z,102162.78
2023-03-27T09:43:13.055Z,102164.84
2023-03-27T09:45:44.060Z,102132.41
2023-03-27T09:48:15.398Z,102128.81
2023-03-27T09:50:47.412Z,102117.31
2023-03-27T09:53:39.808Z,102128.19
2023-03-27T09:56:16.691Z,102127.38
2023-03-27T09:58:50.097Z,102134.88
2023-03-27T10:01:30.298Z,102131.59
2023-03-27T10:04:14.087Z,102133.84
2023-03-27T10:06:47.386Z,102136.00
2023-03-27T10:09:26.442Z,102129.94
2023-03-27T10:12:09.003Z,102137.06
2023-03-27T10:14:41.343Z,102128.66
2023-03-27T10:17:22.613Z,102135.97
2023-03-27T10:20:05.371Z,102138.88
2023-03-27T10:22:39.389Z,102130.03
2023-03-27T10:25:17.455Z,102131.63
2023-03-27T10:27:53.637Z,102129.97
2023-03-27T10:30:40.510Z,102124.69
2023-03-27T10:33:30.623Z,102123.69
2023-03-27T10:36:12.922Z,102126.28
2023-03-27T10:38:43.532Z,102129.50
2023-03-27T10:41:29.457Z,102123.34
2023-03-27T10:44:00.310Z,102132.09
2023-03-27T10:46:30.119Z,102139.19
2023-03-27T10:49:17.406Z,102137.91
2023-03-27T10:51:50.512Z,102139.31
2023-03-27T10:54:43.431Z,102141.09
2023-03-27T10:57:15.989Z,102137.22
2023-03-27T10:59:48.861Z,102147.09
2023-03-27T11:02:32.472Z,102144.69
2023-03-27T11:05:04.375Z,102141.19
2023-03-27T11:07:38.934Z,102136.59
2023-03-27T11:10:15.452Z,102145.94
2023-03-27T11:12:49.453Z,102142.31
2023-03-27T11:15:22.841Z,102156.38
2023-03-27T11:17:58.622Z,102154.84
2023-03-27T11:20:52.629Z,102147.72
2023-03-27T11:23:34.912Z,102147.94
2023-03-27T11:26:50.652Z,102162.84
2023-03-27T11:29:28.357Z,102174.59
2023-03-27T11:32:04.877Z,102185.44
2023-03-27T11:35:00.469Z,102219.50
2023-03-27T11:37:52.733Z,102228.84
2023-03-27T11:40:26.820Z,102247.28
2023-03-27T11:43:02.254Z,102241.94
2023-03-27T11:45:42.693Z,102223.78
2023-03-27T11:48:38.250Z,102215.78
2023-03-27T11:51:20.611Z,102225.13
2023-03-27T11:54:06.962Z,102216.72
2023-03-27T11:56:58.297Z,102219.84
2023-03-27T12:00:12.143Z,102224.47
2023-03-27T12:03:12.201Z,102218.06
2023-03-27T12:05:56.229Z,102215.78
2023-03-27T12:08:42.667Z,102216.09
2023-03-27T12:11:13.785Z,102208.38
2023-03-27T12:14:18.441Z,102207.84
2023-03-27T12:17:28.180Z,102203.78
2023-03-27T12:20:21.954Z,102198.75
2023-03-27T12:23:03.721Z,102208.38
2023-03-27T12:26:00.519Z,102222.22
2023-03-27T12:29:03.606Z,102225.78
2023-03-27T12:32:16.418Z,102239.50
2023-03-27T12:34:53.217Z,102237.44
2023-03-27T12:37:27.305Z,102258.34
2023-03-27T12:39:59.165Z,102245.47
2023-03-27T12:42:44.570Z,102268.47
2023-03-27T12:45:19.478Z,102270.88
2023-03-27T12:48:17.424Z,102276.34
2023-03-27T12:50:47.253Z,102278.56
2023-03-27T12:53:48.735Z,102269.25
2023-03-27T12:56:30.248Z,102267.06
2023-03-27T12:58:58.293Z,102260.53
2023-03-27T13:01:56.320Z,102262.69
2023-03-27T13:04:50.950Z,102265.84
2023-03-27T13:07:26.399Z,102269.03
2023-03-27T13:10:19.094Z,102264.00
2023-03-27T13:13:05.741Z,102258.19
2023-03-27T13:15:57.694Z,102261.03
2023-03-27T13:18:50.940Z,102264.38
2023-03-27T13:21:29.752Z,102259.53
2023-03-27T13:24:19.139Z,102262.44
2023-03-27T13:26:59.682Z,102254.03
2023-03-27T13:29:32.486Z,102256.06
2023-03-27T13:32:07.289Z,102282.59
2023-03-27T13:35:08.492Z,102267.72
2023-03-27T13:37:54.431Z,102259.31
2023-03-27T13:40:36.353Z,102274.72
2023-03-27T13:43:21.577Z,102272.91
2023-03-27T13:45:55.747Z,102266.47
2023-03-27T13:49:04.710Z,102269.63
2023-03-27T13:52:11.746Z,102258.13
2023-03-27T13:55:20.573Z,102259.38
2023-03-27T13:58:19.475Z,102260.41
2023-03-27T14:01:13.505Z,102264.56
2023-03-27T14:04:04.342Z,102261.53
2023-03-27T14:07:16.955Z,102264.00
2023-03-27T14:10:11.248Z,102256.28
2023-03-27T14:12:59.178Z,102259.97
2023-03-27T14:16:11.564Z,102257.44
2023-03-27T14:19:06.415Z,102250.06
2023-03-27T14:21:52.258Z,102253.00
2023-03-27T14:24:30.440Z,102260.41
2023-03-27T14:27:12.158Z,102263.00
2023-03-27T14:29:41.586Z,102260.22
2023-03-27T14:32:17.374Z,102259.63
2023-03-27T14:34:54.216Z,102252.50
2023-03-27T14:37:38.475Z,102262.91
2023-03-27T14:40:24.025Z,102263.81
2023-03-27T14:42:59.552Z,102269.72
2023-03-27T14:45:33.334Z,102277.31
2023-03-27T14:48:08.851Z,102276.53
2023-03-27T14:50:46.711Z,102287.78
2023-03-27T14:53:21.952Z,102280.78
2023-03-27T14:56:25.797Z,102279.09
2023-03-27T14:58:56.563Z,102273.09
2023-03-27T15:01:29.455Z,102286.13
2023-03-27T15:03:57.422Z,102302.03
2023-03-27T15:06:26.435Z,102308.78
2023-03-27T15:09:05.314Z,102297.41
2023-03-27T15:11:56.386Z,102299.78
2023-03-27T15:14:30.400Z,102285.91
2023-03-27T15:17:03.009Z,102296.84
2023-03-27T15:19:43.253Z,102289.81
2023-03-27T15:22:18.770Z,102287.19
2023-03-27T15:24:52.017Z,102297.25
2023-03-27T15:27:24.290Z,102301.53
2023-03-27T15:29:57.853Z,102295.75
2023-03-27T15:32:32.415Z,102304.91
2023-03-27T15:35:03.415Z,102304.00
2023-03-27T15:37:32.946Z,102299.09
2023-03-27T15:40:09.072Z,102306.28
2023-03-27T15:42:47.360Z,102308.34
2023-03-27T15:45:17.272Z,102320.84
2023-03-27T15:47:59.982Z,102314.06
2023-03-27T15:50:28.312Z,102319.34
2023-03-27T15:52:58.680Z,102329.81
2023-03-27T15:55:36.390Z,102333.50
2023-03-27T15:58:17.208Z,102327.06
2023-03-27T16:00:48.018Z,102339.47
2023-03-27T16:03:21.431Z,102331.72
2023-03-27T16:05:51.369Z,102333.84
2023-03-27T16:08:28.645Z,102356.63
2023-03-27T16:10:56.940Z,102353.56
2023-03-27T16:13:33.128Z,102343.78
2023-03-27T16:16:02.787Z,102363.50
2023-03-27T16:18:35.062Z,102360.38
2023-03-27T16:21:07.914Z,102369.78
2023-03-27T16:23:35.932Z,102365.19
2023-03-27T16:26:06.316Z,102363.00
2023-03-27T16:28:34.588Z,102364.78
2023-03-27T16:31:11.751Z,102365.38
2023-03-27T16:33:42.852Z,102373.34
2023-03-27T16:36:12.708Z,102371.84
2023-03-27T16:38:42.401Z,102372.28
2023-03-27T16:41:14.280Z,102377.41
2023-03-27T16:43:42.645Z,102379.50
2023-03-27T16:46:17.577Z,102377.69
2023-03-27T16:48:46.780Z,102391.25
2023-03-27T16:51:14.704Z,102385.59
2023-03-27T16:53:42.466Z,102387.00
2023-03-27T16:56:11.489Z,102383.16
2023-03-27T16:58:39.394Z,102386.91
2023-03-27T17:01:08.485Z,102391.59
2023-03-27T17:03:37.104Z,102388.38
2023-03-27T17:06:08.386Z,102401.06
2023-03-27T17:08:37.293Z,102406.28
2023-03-27T17:11:07.437Z,102408.91
2023-03-27T17:13:35.919Z,102413.53
2023-03-27T17:16:04.235Z,102413.84
2023-03-27T17:18:34.865Z,102416.09
2023-03-27T17:21:02.663Z,102420.41
2023-03-27T17:23:32.213Z,102426.31
2023-03-27T17:26:00.943Z,102422.97
2023-03-27T17:28:29.162Z,102421.06
2023-03-27T17:31:04.584Z,102424.81
2023-03-27T17:33:33.689Z,102432.53
2023-03-27T17:36:01.894Z,102437.66
2023-03-27T17:38:31.823Z,102434.47
2023-03-27T17:40:59.573Z,102439.25
2023-03-27T17:43:27.369Z,102434.91
2023-03-27T17:45:55.226Z,102440.91
2023-03-27T17:48:23.037Z,102444.22
2023-03-27T17:51:05.179Z,102447.03
2023-03-27T17:53:38.291Z,102450.53
2023-03-27T17:56:07.378Z,102450.31
2023-03-27T17:58:36.960Z,102453.22
2023-03-27T18:01:14.285Z,102450.13
2023-03-27T18:03:42.240Z,102454.06
2023-03-27T18:06:10.339Z,102455.59
2023-03-27T18:08:39.451Z,102458.38
2023-03-27T18:11:09.945Z,102460.84
2023-03-27T18:13:38.568Z,102463.63
2023-03-27T18:16:08.718Z,102465.78
2023-03-27T18:18:36.753Z,102473.63
2023-03-27T18:21:04.784Z,102479.13
2023-03-27T18:23:34.783Z,102485.56
2023-03-27T18:26:06.120Z,102481.75
2023-03-27T18:28:34.334Z,102488.81
2023-03-27T18:31:04.452Z,102481.13
2023-03-27T18:33:32.925Z,102487.75
2023-03-27T18:36:01.503Z,102492.84
2023-03-27T18:38:30.018Z,102487.09
2023-03-27T18:40:59.691Z,102489.00
2023-03-27T18:43:29.313Z,102489.00
2023-03-27T18:45:57.841Z,102487.09
2023-03-27T18:48:26.581Z,102489.84
2023-03-27T18:50:55.386Z,102494.91
2023-03-27T18:53:23.389Z,102486.00
2023-03-27T18:55:52.040Z,102489.53
2023-03-27T18:58:20.700Z,102505.44
2023-03-27T19:00:49.882Z,102501.97
2023-03-27T19:03:20.214Z,102500.81
2023-03-27T19:05:48.734Z,102505.09
2023-03-27T19:08:17.689Z,102513.66
2023-03-27T19:10:45.832Z,102515.59
2023-03-27T19:13:25.602Z,102517.16
2023-03-27T19:15:57.643Z,102514.78
2023-03-27T19:18:44.108Z,102517.88
2023-03-27T19:21:19.331Z,102513.94
2023-03-27T19:23:53.362Z,102503.09
2023-03-27T19:26:24.086Z,102506.53
2023-03-27T19:28:51.857Z,102513.50
2023-03-27T19:31:21.500Z,102506.13
2023-03-27T19:33:49.340Z,102511.19
2023-03-27T19:36:17.169Z,102511.19
2023-03-27T19:38:44.963Z,102511.94
2023-03-27T19:41:12.812Z,102504.97
2023-03-27T19:43:40.628Z,102506.50
2023-03-27T19:46:16.170Z,102507.63
2023-03-27T19:48:47.334Z,102509.56
2023-03-27T19:51:23.090Z,102508.00
2023-03-27T19:53:52.768Z,102504.47
2023-03-27T19:56:23.360Z,102504.84
2023-03-27T19:58:52.218Z,102506.00
2023-03-27T20:01:21.382Z,102509.09
2023-03-27T20:03:50.648Z,102511.38
2023-03-27T20:06:19.505Z,102506.69
2023-03-27T20:08:47.447Z,102506.66
2023-03-27T20:11:16.731Z,102509.69
2023-03-27T20:13:56.065Z,102505.44
2023-03-27T20:16:26.221Z,102510.06
2023-03-27T20:19:04.379Z,102507.34
2023-03-27T20:21:35.077Z,102516.19
2023-03-27T20:24:06.700Z,102507.72
2023-03-27T20:26:39.888Z,102517.38
2023-03-27T20:29:16.183Z,102517.72
2023-03-27T20:31:46.139Z,102523.09
2023-03-27T20:34:19.102Z,102529.31
2023-03-27T20:36:47.068Z,102527.31
2023-03-27T20:39:33.483Z,102537.28
2023-03-27T20:42:01.310Z,102533.34
2023-03-27T20:44:35.900Z,102536.03
2023-03-27T20:47:12.078Z,102537.22
2023-03-27T20:49:43.873Z,102538.00
2023-03-27T20:52:13.739Z,102540.28
2023-03-27T20:54:41.669Z,102534.06
2023-03-27T20:57:12.138Z,102541.00
2023-03-27T20:59:40.118Z,102535.22
2023-03-27T21:02:08.152Z,102529.81
2023-03-27T21:04:36.278Z,102538.31
2023-03-27T21:07:06.314Z,102536.34
2023-03-27T21:09:34.074Z,102534.75
2023-03-27T21:12:02.027Z,102529.31
2023-03-27T21:14:29.785Z,102532.00
2023-03-27T21:16:57.674Z,102529.56
2023-03-27T21:19:25.541Z,102532.22
2023-03-27T21:21:53.412Z,102534.16
2023-03-27T21:24:22.604Z,102532.50
2023-03-27T21:26:50.438Z,102541.00
2023-03-27T21:29:20.791Z,102539.00
2023-03-27T21:31:48.639Z,102547.03
2023-03-27T21:34:16.449Z,102539.22
2023-03-27T21:36:44.353Z,102535.25
2023-03-27T21:39:12.163Z,102546.75
2023-03-27T21:41:41.366Z,102546.31
2023-03-27T21:44:09.159Z,102550.53
2023-03-27T21:46:37.001Z,102552.03
2023-03-27T21:49:04.902Z,102547.75
2023-03-27T21:51:32.726Z,102546.94
2023-03-27T21:54:00.506Z,102549.59
2023-03-27T21:56:28.280Z,102556.84
2023-03-27T21:58:57.583Z,102550.53
2023-03-27T22:01:25.928Z,102553.16
2023-03-27T22:03:53.874Z,102552.69
2023-03-27T22:06:21.690Z,102563.81
2023-03-27T22:08:49.458Z,102565.69
2023-03-27T22:11:17.456Z,102566.09
2023-03-27T22:13:46.435Z,102564.91
2023-03-27T22:16:17.818Z,102572.19
2023-03-27T22:18:45.705Z,102567.94
2023-03-27T22:21:16.172Z,102560.59
2023-03-27T22:23:44.298Z,102565.97
2023-03-27T22:26:12.479Z,102562.47
2023-03-27T22:28:40.340Z,102562.09
2023-03-27T22:31:08.660Z,102560.94
2023-03-27T22:33:38.415Z,102574.78
2023-03-27T22:36:10.503Z,102570.88
2023-03-27T22:38:38.982Z,102575.81
2023-03-27T22:41:08.930Z,102576.13
2023-03-27T22:43:37.323Z,102577.22
2023-03-27T22:46:06.843Z,102583.28
2023-03-27T22:48:34.961Z,102582.72
2023-03-27T22:51:04.877Z,102582.97
2023-03-27T22:53:33.024Z,102586.31
2023-03-27T22:56:01.847Z,102581.72
2023-03-27T22:58:30.502Z,102582.84
2023-03-27T23:00:58.636Z,102587.03
2023-03-27T23:03:27.898Z,102580.44
2023-03-27T23:05:56.432Z,102585.75
2023-03-27T23:08:28.142Z,102585.00
2023-03-27T23:10:56.676Z,102590.03
2023-03-27T23:13:24.867Z,102583.44
2023-03-27T23:15:53.385Z,102589.53
2023-03-27T23:18:24.497Z,102592.22
2023-03-27T23:20:56.467Z,102587.22
2023-03-27T23:23:26.776Z,102592.53
2023-03-27T23:25:54.934Z,102584.38
2023-03-27T23:28:23.041Z,102593.59
2023-03-27T23:30:55.141Z,102591.28
2023-03-27T23:33:25.068Z,102590.84
2023-03-27T23:35:53.800Z,102594.25
2023-03-27T23:38:21.871Z,102597.75
2023-03-27T23:40:57.501Z,102586.53
2023-03-27T23:43:26.713Z,102590.34
2023-03-27T23:45:56.096Z,102598.38
2023-03-27T23:48:24.359Z,102592.91
2023-03-27T23:50:53.170Z,102590.94
2023-03-27T23:53:21.997Z,102591.72
2023-03-27T23:55:49.888Z,102593.63
2023-03-27T23:58:19.373Z,102599.72
